Time;durP1;ratioP1;P1;durP2;ratioP2;P2;SDS_P1;SDS_P2;PMS_P1;PMS_P2;Temp;Humidity;BMP_temperature;BMP_pressure;BME280_temperature;BME280_humidity;BME280_pressure;Samples;Min_cycle;Max_cycle;Signal;HPM_P1;HPM_P2
2023/04/11 00:01:33;;;;;;;135.15;121.85;;;;;;;8.22;100.00;100840.72;6243957;23;20052;-91
2023/04/11 00:04:00;;;;;;;132.20;118.30;;;;;;;8.33;100.00;100839.41;6243519;23;20023;-92
2023/04/11 00:06:27;;;;;;;145.43;131.65;;;;;;;8.25;100.00;100829.75;6243743;23;20046;-92
2023/04/11 00:08:55;;;;;;;124.85;112.55;;;;;;;7.99;100.00;100825.03;6243675;23;20082;-93
2023/04/11 00:11:22;;;;;;;125.45;112.60;;;;;;;8.21;100.00;100822.41;6243659;23;20028;-92
2023/04/11 00:13:49;;;;;;;125.05;112.07;;;;;;;8.26;100.00;100823.47;6243898;23;20029;-91
2023/04/11 00:16:19;;;;;;;136.23;122.82;;;;;;;8.21;100.00;100811.81;6242990;23;20020;-91
2023/04/11 00:18:46;;;;;;;142.93;128.90;;;;;;;8.40;100.00;100810.41;6243565;23;20070;-92
2023/04/11 00:21:12;;;;;;;131.63;118.85;;;;;;;8.14;100.00;100798.53;6243105;23;20296;-91
2023/04/11 00:23:39;;;;;;;130.93;118.10;;;;;;;7.80;100.00;100799.16;6243021;23;20546;-90
2023/04/11 00:26:08;;;;;;;127.57;114.57;;;;;;;7.94;100.00;100798.28;6243549;23;20083;-93
2023/04/11 00:28:35;;;;;;;132.45;119.43;;;;;;;7.65;100.00;100788.59;6243850;23;20020;-91
2023/04/11 00:31:02;;;;;;;151.85;137.35;;;;;;;8.09;100.00;100789.50;6243631;23;20031;-91
2023/04/11 00:33:30;;;;;;;154.13;139.68;;;;;;;8.21;100.00;100783.53;6242850;23;20024;-92
2023/04/11 00:35:56;;;;;;;161.20;145.73;;;;;;;8.39;100.00;100788.41;6243546;23;20039;-92
2023/04/11 00:38:23;;;;;;;139.00;125.45;;;;;;;8.48;100.00;100781.16;6242766;23;20024;-92
2023/04/11 00:40:50;;;;;;;140.27;126.13;;;;;;;8.51;100.00;100782.63;6243284;23;20020;-93
2023/04/11 00:43:21;;;;;;;162.85;137.13;;;;;;;8.54;100.00;100776.94;6243755;23;20070;-91
2023/04/11 00:45:48;;;;;;;131.90;118.60;;;;;;;8.38;100.00;100792.06;6243022;23;20024;-92
2023/04/11 00:48:16;;;;;;;135.98;122.97;;;;;;;8.24;100.00;100788.44;6242751;23;20024;-89
2023/04/11 00:50:43;;;;;;;139.13;125.93;;;;;;;8.43;100.00;100797.59;6243415;23;20020;-90
2023/04/11 00:53:12;;;;;;;132.10;118.55;;;;;;;8.57;100.00;100792.44;6242979;23;20047;-94
2023/04/11 00:55:39;;;;;;;127.25;113.90;;;;;;;8.35;100.00;100791.59;6242876;23;20020;-92
2023/04/11 00:58:07;;;;;;;118.65;106.35;;;;;;;8.45;100.00;100795.59;6243270;23;20024;-92
2023/04/11 01:00:37;;;;;;;120.65;107.47;;;;;;;8.59;100.00;100793.03;6243328;23;20047;-92
2023/04/11 01:03:05;;;;;;;196.55;139.80;;;;;;;8.64;100.00;100794.13;6242652;23;20062;-90
2023/04/11 01:05:33;;;;;;;137.75;115.13;;;;;;;8.75;100.00;100792.78;6242817;23;20476;-93
2023/04/11 01:08:00;;;;;;;125.10;108.70;;;;;;;8.67;100.00;100784.97;6242734;23;20017;-89
2023/04/11 01:10:31;;;;;;;126.70;106.30;;;;;;;8.65;100.00;100789.63;6242881;23;20023;-93
2023/04/11 01:13:00;;;;;;;277.77;163.90;;;;;;;8.57;100.00;100785.31;6243281;23;20382;-91
2023/04/11 01:21:35;;;;;;;122.43;109.25;;;;;;;8.33;100.00;100767.16;6241100;23;20131;-90
2023/04/11 01:27:24;;;;;;;138.73;124.65;;;;;;;8.45;100.00;100769.13;6239051;23;20063;-91
2023/04/11 01:35:44;;;;;;;129.25;115.88;;;;;;;8.46;100.00;100757.50;6241796;23;20095;-92
2023/04/11 01:38:24;;;;;;;125.15;112.32;;;;;;;8.43;100.00;100754.44;6242518;23;20020;-91
2023/04/11 01:41:09;;;;;;;112.80;100.82;;;;;;;8.78;100.00;100738.63;6242854;23;20373;-93
2023/04/11 01:43:46;;;;;;;99.32;88.70;;;;;;;8.69;100.00;100735.31;6242487;23;20024;-93
2023/04/11 01:46:26;;;;;;;85.55;76.18;;;;;;;8.73;100.00;100741.03;6242491;23;20106;-91
2023/04/11 01:54:49;;;;;;;98.72;88.32;;;;;;;8.66;100.00;100728.56;6238810;23;20044;-89
2023/04/11 01:57:55;;;;;;;;;;;;;;;;;;;;;
2023/04/11 02:03:41;;;;;;;98.80;88.57;;;;;;;8.64;100.00;100713.88;6240804;23;20466;-90
2023/04/11 02:06:38;;;;;;;97.60;87.03;;;;;;;8.67;100.00;100716.94;6241842;23;20059;-91
2023/04/11 02:09:34;;;;;;;107.32;95.93;;;;;;;8.52;100.00;100721.53;6242743;23;20557;-91
2023/04/11 02:18:03;;;;;;;105.53;94.28;;;;;;;8.56;100.00;100720.13;6239009;23;20024;-92
2023/04/11 02:23:33;;;;;;;103.93;93.35;;;;;;;8.31;100.00;100714.41;6238819;23;20373;-91
2023/04/11 02:26:14;;;;;;;107.35;95.80;;;;;;;8.29;100.00;100712.94;6243007;23;20428;-92
2023/04/11 02:37:27;;;;;;;119.18;107.38;;;;;;;8.42;100.00;100699.88;6240324;23;20478;-91
2023/04/11 02:45:40;;;;;;;112.75;101.35;;;;;;;8.43;100.00;100689.06;6241752;23;20024;-91
2023/04/11 02:48:27;;;;;;;100.90;89.95;;;;;;;8.46;100.00;100679.94;6244474;23;20031;-89
2023/04/11 02:53:58;;;;;;;96.20;86.15;;;;;;;8.26;100.00;100674.47;6242486;23;20052;-91
2023/04/11 02:59:48;;;;;;;113.72;102.07;;;;;;;8.31;100.00;100669.41;6239771;23;20023;-93
2023/04/11 03:08:57;;;;;;;103.63;92.80;;;;;;;8.13;100.00;100656.66;6181907;23;20020;-89
2023/04/11 03:14:40;;;;;;;86.75;76.57;;;;;;;8.26;100.00;100666.53;6239913;23;20087;-91
2023/04/11 03:17:31;;;;;;;98.22;87.95;;;;;;;8.12;100.00;100652.38;6243081;23;20032;-90
2023/04/11 03:20:31;;;;;;;88.57;79.10;;;;;;;8.27;100.00;100658.41;6244424;23;20024;-89
2023/04/11 03:23:12;;;;;;;93.95;83.85;;;;;;;8.08;100.00;100658.22;6228985;23;20024;-90
2023/04/11 03:26:04;;;;;;;97.35;87.05;;;;;;;8.15;100.00;100659.94;6244160;23;20035;-92
2023/04/11 03:40:25;;;;;;;;;;;;;;;;;;;;;
2023/04/11 03:43:22;;;;;;;81.95;73.03;;;;;;;8.21;100.00;100638.00;6243137;23;20500;-89
2023/04/11 03:46:03;;;;;;;80.18;71.28;;;;;;;8.33;100.00;100629.53;6237782;23;20020;-91
2023/04/11 03:49:01;;;;;;;73.93;66.07;;;;;;;8.33;100.00;100622.41;6243905;23;20107;-89
2023/04/11 03:54:36;;;;;;;79.40;66.85;;;;;;;8.20;100.00;100622.31;6237738;23;20028;-90
2023/04/11 03:57:40;;;;;;;;;;;;;;;;;;;;;
2023/04/11 04:03:25;;;;;;;74.38;66.50;;;;;;;8.27;100.00;100617.91;6197257;23;20027;-91
2023/04/11 04:05:51;;;;;;;74.15;66.53;;;;;;;8.49;100.00;100621.31;6243808;23;20085;-91
2023/04/11 04:08:18;;;;;;;72.85;65.30;;;;;;;8.38;100.00;100611.22;6243297;23;20020;-92
2023/04/11 04:10:45;;;;;;;73.18;65.72;;;;;;;8.32;100.00;100612.84;6242352;23;20024;-94
2023/04/11 04:13:12;;;;;;;66.15;59.38;;;;;;;8.30;100.00;100611.41;6236950;23;20047;-91
2023/04/11 04:15:41;;;;;;;69.38;61.67;;;;;;;8.19;100.00;100608.25;6234019;23;20020;-90
2023/04/11 04:18:08;;;;;;;73.57;66.32;;;;;;;8.57;100.00;100604.47;6242763;23;20023;-92
2023/04/11 04:20:35;;;;;;;71.07;64.25;;;;;;;8.75;100.00;100612.72;6243175;23;20031;-90
2023/04/11 04:23:03;;;;;;;61.72;55.25;;;;;;;8.64;100.00;100614.06;6242904;23;20021;-89
2023/04/11 04:25:30;;;;;;;70.53;63.38;;;;;;;8.43;100.00;100608.88;6242322;23;20492;-90
2023/04/11 04:27:59;;;;;;;72.97;65.78;;;;;;;8.22;100.00;100604.41;6243358;23;20016;-92
2023/04/11 04:30:27;;;;;;;77.63;70.13;;;;;;;8.30;100.00;100598.16;6243890;23;20103;-91
2023/04/11 04:32:57;;;;;;;80.40;72.80;;;;;;;8.30;100.00;100598.16;6243607;23;20016;-90
2023/04/11 04:35:24;;;;;;;75.32;67.85;;;;;;;8.57;100.00;100600.00;6242938;23;20027;-91
2023/04/11 04:37:52;;;;;;;70.43;63.22;;;;;;;8.43;100.00;100588.50;6243894;23;20027;-90
2023/04/11 04:40:21;;;;;;;67.25;60.50;;;;;;;8.38;100.00;100590.06;6243348;23;20024;-92
2023/04/11 04:42:56;;;;;;;65.22;58.50;;;;;;;8.39;100.00;100579.31;6243424;23;20024;-91
2023/04/11 04:45:24;;;;;;;64.82;58.45;;;;;;;8.72;100.00;100586.63;6242918;23;20539;-92
2023/04/11 04:47:51;;;;;;;54.90;49.15;;;;;;;8.57;100.00;100578.81;6240843;23;20020;-92
2023/04/11 04:50:19;;;;;;;54.08;46.30;;;;;;;8.85;100.00;100583.22;6240973;23;20078;-92
2023/04/11 04:52:46;;;;;;;52.78;47.28;;;;;;;8.48;100.00;100578.16;6242278;23;20051;-89
2023/04/11 04:55:14;;;;;;;50.03;44.80;;;;;;;8.73;100.00;100582.97;6241098;23;20024;-92
2023/04/11 04:57:41;;;;;;;55.20;49.60;;;;;;;8.84;100.00;100582.41;6242322;23;20027;-90
2023/04/11 05:00:10;;;;;;;56.65;50.90;;;;;;;8.70;100.00;100576.22;6241974;23;20024;-90
2023/04/11 05:02:39;;;;;;;55.47;50.03;;;;;;;9.15;100.00;100581.06;6242411;23;20031;-92
2023/04/11 05:05:07;;;;;;;54.00;48.60;;;;;;;8.70;100.00;100581.50;6241649;23;20531;-92
2023/04/11 05:07:35;;;;;;;54.88;49.58;;;;;;;8.58;100.00;100574.34;6240855;23;20020;-92
2023/04/11 05:10:02;;;;;;;58.88;52.65;;;;;;;8.57;100.00;100572.72;6240940;23;20082;-91
2023/04/11 05:12:29;;;;;;;60.97;54.80;;;;;;;8.54;100.00;100575.75;6241456;23;20023;-93
2023/04/11 05:14:55;;;;;;;61.13;54.92;;;;;;;8.53;100.00;100574.09;6240900;23;20023;-93
2023/04/11 05:17:23;;;;;;;60.55;54.50;;;;;;;8.48;100.00;100574.69;6240908;23;20032;-92
2023/04/11 05:19:50;;;;;;;59.83;54.20;;;;;;;8.49;100.00;100568.38;6241173;23;20054;-92
2023/04/11 05:22:17;;;;;;;62.50;56.63;;;;;;;8.55;100.00;100586.13;6243377;23;20058;-93
2023/04/11 05:24:45;;;;;;;59.83;54.08;;;;;;;8.58;100.00;100575.16;6242760;23;20294;-90
2023/04/11 05:27:13;;;;;;;55.08;49.28;;;;;;;8.63;100.00;100579.88;6242986;23;20020;-91
2023/04/11 05:29:40;;;;;;;54.55;48.65;;;;;;;8.71;100.00;100575.22;6243145;23;20425;-92
2023/04/11 05:32:06;;;;;;;49.53;44.45;;;;;;;8.77;100.00;100572.78;6242886;23;20019;-92
2023/04/11 05:34:34;;;;;;;48.58;43.55;;;;;;;8.76;100.00;100569.31;6242732;23;20028;-91
2023/04/11 05:37:01;;;;;;;50.35;43.25;;;;;;;9.07;100.00;100560.88;6242403;23;20524;-90
2023/04/11 05:39:28;;;;;;;48.60;43.50;;;;;;;8.95;100.00;100560.63;6242559;23;20090;-91
2023/04/11 05:41:56;;;;;;;45.75;41.15;;;;;;;8.85;100.00;100556.72;6242793;23;20020;-92
2023/04/11 05:44:23;;;;;;;46.28;41.67;;;;;;;8.98;100.00;100558.59;6243171;23;20028;-90
2023/04/11 05:46:50;;;;;;;44.28;39.78;;;;;;;8.89;100.00;100556.13;6242935;23;20087;-91
2023/04/11 05:49:17;;;;;;;44.35;39.95;;;;;;;8.87;100.00;100552.06;6243083;23;20028;-92
2023/04/11 05:51:44;;;;;;;42.47;37.97;;;;;;;8.88;100.00;100540.44;6242653;23;20753;-91
2023/04/11 05:54:10;;;;;;;43.20;38.97;;;;;;;8.88;100.00;100541.25;6242431;23;20078;-92
2023/04/11 05:56:41;;;;;;;41.47;37.40;;;;;;;9.25;100.00;100543.59;6242988;23;20020;-91
2023/04/11 05:59:09;;;;;;;40.88;36.45;;;;;;;9.07;100.00;100541.50;6242870;23;20020;-91
2023/04/11 06:01:38;;;;;;;40.05;36.05;;;;;;;9.11;100.00;100553.34;6243262;23;20024;-90
2023/04/11 06:04:05;;;;;;;43.38;38.83;;;;;;;9.11;100.00;100540.94;6242453;23;20016;-92
2023/04/11 06:06:32;;;;;;;45.38;41.05;;;;;;;8.99;100.00;100547.00;6242922;23;20016;-91
2023/04/11 06:08:59;;;;;;;48.30;43.90;;;;;;;9.14;100.00;100545.81;6242459;23;20048;-92
2023/04/11 06:11:26;;;;;;;48.33;43.58;;;;;;;8.89;100.00;100529.63;6242730;23;20413;-91
2023/04/11 06:13:53;;;;;;;49.42;45.03;;;;;;;8.91;100.00;100538.22;6243515;23;20276;-92
2023/04/11 06:16:22;;;;;;;44.75;40.38;;;;;;;9.00;100.00;100543.34;6244758;23;20028;-92
2023/04/11 06:18:48;;;;;;;46.00;41.60;;;;;;;8.94;100.00;100529.88;6244918;23;20027;-92
2023/04/11 06:21:15;;;;;;;43.65;39.35;;;;;;;9.08;100.00;100519.31;6244729;23;20027;-92
2023/04/11 06:23:42;;;;;;;42.95;38.90;;;;;;;9.28;100.00;100527.28;6244122;23;20020;-92
2023/04/11 06:26:09;;;;;;;41.80;37.80;;;;;;;9.57;100.00;100513.66;6244623;23;20020;-91
2023/04/11 06:28:36;;;;;;;43.45;39.53;;;;;;;9.41;100.00;100519.38;6244731;23;20027;-93
2023/04/11 06:31:03;;;;;;;45.30;40.60;;;;;;;9.07;100.00;100504.41;6245007;23;20024;-92
2023/04/11 06:33:31;;;;;;;45.35;40.85;;;;;;;9.00;100.00;100506.25;6244949;23;20044;-91
2023/04/11 06:35:58;;;;;;;45.22;40.83;;;;;;;9.09;100.00;100505.03;6244512;23;20024;-91
2023/04/11 06:38:24;;;;;;;46.58;42.17;;;;;;;9.02;100.00;100498.94;6244771;23;20020;-92
2023/04/11 06:40:53;;;;;;;47.58;43.05;;;;;;;9.18;100.00;100504.66;6244815;23;20024;-91
2023/04/11 06:43:20;;;;;;;43.50;39.55;;;;;;;9.40;100.00;100504.47;6244703;23;20020;-92
2023/04/11 06:45:48;;;;;;;47.38;42.53;;;;;;;9.40;100.00;100501.81;6244673;23;20031;-93
2023/04/11 06:48:16;;;;;;;53.95;48.50;;;;;;;8.75;100.00;100504.16;6244620;23;20082;-92
2023/04/11 06:50:45;;;;;;;51.65;46.55;;;;;;;9.10;100.00;100502.19;6244198;23;20074;-92
2023/04/11 06:53:12;;;;;;;51.40;46.30;;;;;;;8.82;100.00;100502.31;6244247;23;20040;-91
2023/04/11 06:55:38;;;;;;;51.95;46.10;;;;;;;8.69;100.00;100494.34;6244753;23;20611;-91
2023/04/11 06:58:05;;;;;;;56.17;50.15;;;;;;;8.76;100.00;100497.81;6244553;23;20428;-91
2023/04/11 07:00:32;;;;;;;62.38;50.53;;;;;;;9.11;100.00;100501.19;6244871;23;20036;-91
2023/04/11 07:02:59;;;;;;;56.03;50.17;;;;;;;8.87;100.00;100505.19;6244347;23;20351;-89
2023/04/11 07:05:26;;;;;;;54.92;49.40;;;;;;;9.45;100.00;100504.69;6244360;23;20026;-92
2023/04/11 07:07:54;;;;;;;53.85;47.72;;;;;;;8.93;100.00;100501.75;6244866;23;20095;-92
2023/04/11 07:10:21;;;;;;;54.70;48.80;;;;;;;8.97;100.00;100509.28;6244468;23;20024;-92
2023/04/11 07:12:48;;;;;;;51.03;45.67;;;;;;;9.16;100.00;100501.38;6244641;23;20043;-92
2023/04/11 07:15:15;;;;;;;51.97;46.53;;;;;;;9.03;100.00;100496.06;6244369;23;20350;-93
2023/04/11 07:17:42;;;;;;;52.00;46.55;;;;;;;9.06;100.00;100485.06;6244302;23;20017;-91
2023/04/11 07:20:10;;;;;;;51.10;45.47;;;;;;;9.07;100.00;100486.69;6244150;23;20354;-92
2023/04/11 07:22:37;;;;;;;52.88;47.35;;;;;;;8.95;100.00;100497.03;6244137;23;20020;-92
2023/04/11 07:25:06;;;;;;;57.15;51.28;;;;;;;8.89;100.00;100489.91;6244513;23;20016;-91
2023/04/11 07:27:35;;;;;;;53.03;47.47;;;;;;;9.09;100.00;100499.75;6244608;23;20082;-92
2023/04/11 07:30:01;;;;;;;60.58;54.65;;;;;;;9.15;100.00;100493.63;6244860;23;20054;-94
2023/04/11 07:32:28;;;;;;;62.15;56.20;;;;;;;9.07;100.00;100497.28;6244925;23;20016;-91
2023/04/11 07:34:55;;;;;;;56.97;51.17;;;;;;;9.17;100.00;100489.78;6244892;23;20409;-91
2023/04/11 07:37:22;;;;;;;59.50;53.63;;;;;;;9.06;100.00;100498.31;6244060;23;20058;-91
2023/04/11 07:39:49;;;;;;;55.60;49.60;;;;;;;9.13;100.00;100485.88;6243527;23;20020;-91
2023/04/11 07:42:17;;;;;;;58.85;52.85;;;;;;;9.16;100.00;100479.38;6244173;23;20485;-90
2023/04/11 07:44:44;;;;;;;63.78;57.35;;;;;;;9.13;100.00;100474.47;6243519;23;20462;-92
2023/04/11 07:47:11;;;;;;;66.25;59.58;;;;;;;9.49;100.00;100482.03;6243572;23;20099;-93
2023/04/11 07:49:37;;;;;;;67.97;61.58;;;;;;;9.36;100.00;100476.75;6244106;23;20078;-91
2023/04/11 07:52:04;;;;;;;68.25;62.00;;;;;;;9.68;100.00;100480.38;6243889;23;20027;-91
2023/04/11 07:54:31;;;;;;;66.82;60.40;;;;;;;9.65;100.00;100475.50;6243900;23;20020;-91
2023/04/11 07:57:01;;;;;;;65.72;59.30;;;;;;;9.60;100.00;100470.81;6244759;23;20024;-93
2023/04/11 07:59:29;;;;;;;61.42;55.75;;;;;;;9.92;100.00;100465.66;6243974;23;20465;-91
2023/04/11 08:02:00;;;;;;;53.88;48.58;;;;;;;9.98;100.00;100466.66;6244350;23;20031;-91
2023/04/11 08:04:32;;;;;;;53.42;48.33;;;;;;;9.93;100.00;100464.66;6243739;23;20020;-90
2023/04/11 08:07:01;;;;;;;55.78;50.53;;;;;;;9.80;100.00;100465.50;6244201;23;20027;-90
2023/04/11 08:09:28;;;;;;;51.28;46.25;;;;;;;9.67;100.00;100465.50;6243454;23;20017;-92
2023/04/11 08:11:55;;;;;;;54.70;49.08;;;;;;;9.55;100.00;100464.50;6243737;23;20024;-91
2023/04/11 08:14:22;;;;;;;54.75;49.28;;;;;;;9.80;100.00;100472.63;6244113;23;20531;-91
2023/04/11 08:16:50;;;;;;;60.83;55.03;;;;;;;9.76;100.00;100474.88;6243570;23;20298;-92
2023/04/11 08:19:18;;;;;;;65.07;59.00;;;;;;;9.82;100.00;100462.63;6243898;23;20016;-92
2023/04/11 08:21:44;;;;;;;67.72;61.15;;;;;;;9.83;100.00;100464.25;6243903;23;20086;-91
2023/04/11 08:24:11;;;;;;;69.65;62.95;;;;;;;9.76;100.00;100455.50;6243597;23;20020;-92
2023/04/11 08:26:38;;;;;;;78.70;70.90;;;;;;;9.90;100.00;100446.50;6243294;23;20074;-91
2023/04/11 08:29:09;;;;;;;659.70;297.60;;;;;;;10.03;100.00;100437.69;6242886;23;20028;-92
2023/04/11 08:31:36;;;;;;;410.80;165.45;;;;;;;10.02;100.00;100430.75;6243365;23;20024;-92
2023/04/11 08:34:05;;;;;;;84.85;76.65;;;;;;;10.20;100.00;100422.13;6243746;23;20024;-91
2023/04/11 08:36:31;;;;;;;78.40;70.82;;;;;;;10.14;100.00;100407.84;6243795;23;20024;-91
2023/04/11 08:38:59;;;;;;;73.72;66.63;;;;;;;10.58;100.00;100400.91;6243156;23;20028;-92
2023/04/11 08:41:30;;;;;;;72.97;65.85;;;;;;;10.89;100.00;100396.63;6243121;23;20481;-92
2023/04/11 08:43:57;;;;;;;74.13;67.43;;;;;;;11.26;100.00;100396.75;6243804;23;20020;-91
2023/04/11 08:46:24;;;;;;;58.22;53.03;;;;;;;11.31;100.00;100395.03;6243448;23;20024;-92
2023/04/11 08:48:51;;;;;;;48.65;44.58;;;;;;;11.67;100.00;100388.16;6243342;23;20517;-91
2023/04/11 08:51:23;;;;;;;45.88;42.10;;;;;;;11.85;100.00;100374.88;6243693;23;20086;-92
2023/04/11 08:53:52;;;;;;;34.58;31.40;;;;;;;11.63;100.00;100371.03;6243165;23;20024;-91
2023/04/11 08:56:19;;;;;;;33.42;30.52;;;;;;;11.70;100.00;100364.59;6243820;23;20020;-93
2023/04/11 08:58:46;;;;;;;36.22;32.72;;;;;;;11.80;100.00;100369.41;6243491;23;20024;-92
2023/04/11 09:01:30;;;;;;;46.95;42.05;;;;;;;11.34;100.00;100361.91;6243748;23;20023;-91
2023/04/11 09:03:58;;;;;;;49.78;44.88;;;;;;;11.00;100.00;100359.53;6243370;23;20024;-91
2023/04/11 09:06:29;;;;;;;46.03;41.20;;;;;;;11.19;100.00;100359.56;6243469;23;20024;-92
2023/04/11 09:08:57;;;;;;;49.63;44.70;;;;;;;11.31;100.00;100349.84;6243652;23;20021;-92
2023/04/11 09:11:24;;;;;;;43.85;39.70;;;;;;;11.51;100.00;100336.38;6243517;23;20031;-89
2023/04/11 09:14:06;;;;;;;47.63;42.72;;;;;;;11.61;100.00;100338.50;6243631;23;20488;-93
2023/04/11 09:16:33;;;;;;;44.70;40.05;;;;;;;11.24;100.00;100328.66;6242836;23;20055;-92
2023/04/11 09:19:00;;;;;;;44.95;40.53;;;;;;;11.26;100.00;100324.97;6242786;23;20020;-92
2023/04/11 09:21:29;;;;;;;48.30;43.60;;;;;;;10.92;100.00;100327.94;6243048;23;20425;-92
2023/04/11 09:24:13;;;;;;;47.80;43.05;;;;;;;11.21;100.00;100322.97;6243509;23;20154;-91
2023/04/11 09:26:40;;;;;;;46.65;42.00;;;;;;;10.89;100.00;100319.56;6242674;23;20016;-92
2023/04/11 09:29:06;;;;;;;47.53;42.92;;;;;;;10.86;100.00;100318.19;6242535;23;20020;-92
2023/04/11 09:31:43;;;;;;;47.25;42.63;;;;;;;11.08;100.00;100312.47;6243003;23;20098;-91
2023/04/11 09:34:12;;;;;;;47.10;42.40;;;;;;;11.24;100.00;100309.22;6242537;23;20078;-91
2023/04/11 09:36:41;;;;;;;44.50;40.30;;;;;;;11.07;100.00;100305.50;6242448;23;20031;-93
2023/04/11 09:39:17;;;;;;;45.83;41.38;;;;;;;11.14;100.00;100300.97;6243156;23;20093;-92
2023/04/11 09:41:45;;;;;;;44.83;40.40;;;;;;;11.24;100.00;100296.75;6242650;23;20429;-91
2023/04/11 09:44:12;;;;;;;40.50;36.30;;;;;;;11.35;100.00;100303.19;6242555;23;20099;-94
2023/04/11 09:46:56;;;;;;;42.67;38.67;;;;;;;11.42;100.00;100303.13;6242841;23;20099;-93
2023/04/11 09:49:23;;;;;;;43.78;39.65;;;;;;;11.09;100.00;100292.81;6242296;23;20039;-91
2023/04/11 09:51:52;;;;;;;40.45;36.53;;;;;;;11.19;100.00;100291.28;6242544;23;20020;-93
2023/04/11 09:54:20;;;;;;;40.67;36.67;;;;;;;11.20;100.00;100276.97;6242412;23;20032;-92
2023/04/11 09:59:32;;;;;;;36.10;33.28;;;;;;;11.30;100.00;100272.97;6229014;23;20374;-93
2023/04/11 10:02:00;;;;;;;44.53;40.42;;;;;;;11.49;100.00;100268.47;6242994;23;20020;-88
2023/04/11 10:04:27;;;;;;;40.50;36.80;;;;;;;11.49;100.00;100276.44;6242369;23;20020;-92
2023/04/11 10:07:08;;;;;;;34.42;31.52;;;;;;;11.47;100.00;100268.72;6242593;23;20043;-91
2023/04/11 10:09:38;;;;;;;39.58;36.10;;;;;;;11.61;100.00;100267.50;6242637;23;20020;-92
2023/04/11 10:12:05;;;;;;;53.13;39.78;;;;;;;11.72;100.00;100263.28;6242184;23;20090;-91
2023/04/11 10:14:42;;;;;;;45.92;41.70;;;;;;;11.66;100.00;100259.66;6243244;23;20024;-91
2023/04/11 10:17:15;;;;;;;41.17;37.55;;;;;;;11.92;100.00;100268.34;6242773;23;20342;-91
2023/04/11 10:19:42;;;;;;;;;;;;;;;12.05;100.00;100265.53;6243321;23;20515;-90
2023/04/11 10:22:14;;;;;;;28.33;25.92;;;;;;;11.91;100.00;100270.22;6242741;23;20006;-93
2023/04/11 10:25:01;;;;;;;31.03;28.23;;;;;;;11.86;100.00;100282.56;6242205;23;20024;-90
2023/04/11 10:27:46;;;;;;;27.80;25.30;;;;;;;12.13;100.00;100275.03;6242812;23;20020;-92
2023/04/11 10:30:13;;;;;;;22.13;20.17;;;;;;;12.14;100.00;100271.34;6242619;23;20024;-91
2023/04/11 10:32:41;;;;;;;22.38;20.60;;;;;;;12.31;100.00;100269.63;6242058;23;20043;-90
2023/04/11 10:35:28;;;;;;;24.08;22.25;;;;;;;12.28;100.00;100259.44;6242781;23;20059;-92
2023/04/11 10:37:56;;;;;;;23.70;21.98;;;;;;;12.22;100.00;100257.69;6242222;23;20039;-91
2023/04/11 10:40:24;;;;;;;22.98;21.17;;;;;;;12.43;100.00;100267.00;6242330;23;20020;-91
2023/04/11 10:42:51;;;;;;;27.08;24.75;;;;;;;12.48;100.00;100258.34;6242650;23;20021;-91
2023/04/11 10:45:23;;;;;;;23.95;22.02;;;;;;;12.45;100.00;100251.63;6242852;23;20031;-91
2023/04/11 10:48:10;;;;;;;22.40;20.65;;;;;;;12.54;100.00;100250.22;6242585;23;20052;-92
2023/04/11 10:50:42;;;;;;;23.48;21.50;;;;;;;12.28;100.00;100245.31;6242411;23;20031;-92
2023/04/11 10:53:35;;;;;;;22.83;20.83;;;;;;;12.58;100.00;100250.59;6242444;23;20103;-91
2023/04/11 10:56:02;;;;;;;21.90;20.30;;;;;;;12.46;100.00;100244.44;6242698;23;20020;-92
2023/04/11 10:58:46;;;;;;;21.48;19.77;;;;;;;12.35;100.00;100244.19;6242835;23;20020;-92
2023/04/11 11:01:58;;;;;;;22.40;20.92;;;;;;;12.13;100.00;100241.25;6243544;23;20473;-91
2023/04/11 11:04:31;;;;;;;26.17;24.25;;;;;;;12.10;100.00;100225.75;6234862;23;20027;-92
2023/04/11 11:06:58;;;;;;;27.05;24.60;;;;;;;11.66;100.00;100230.41;6244902;23;20043;-92
2023/04/11 11:09:27;;;;;;;30.58;28.40;;;;;;;11.73;100.00;100219.66;6243882;23;20031;-91
2023/04/11 11:12:08;;;;;;;29.33;27.17;;;;;;;11.76;100.00;100232.50;6244232;23;20048;-90
2023/04/11 11:14:35;;;;;;;28.63;26.17;;;;;;;11.81;100.00;100247.81;6244595;23;20071;-92
2023/04/11 11:17:02;;;;;;;31.90;29.60;;;;;;;11.85;100.00;100233.84;6243158;23;20081;-92
2023/04/11 11:19:56;;;;;;;27.92;26.13;;;;;;;11.77;100.00;100230.66;6244139;23;20370;-91
2023/04/11 11:22:25;;;;;;;30.08;28.02;;;;;;;11.50;100.00;100225.72;6244411;23;20392;-92
2023/04/11 11:25:07;;;;;;;32.00;29.33;;;;;;;11.51;100.00;100219.34;6244058;23;20024;-95
2023/04/11 11:27:34;;;;;;;34.75;31.92;;;;;;;11.59;100.00;100216.38;6243931;23;20028;-91
2023/04/11 11:30:11;;;;;;;34.45;31.98;;;;;;;11.47;100.00;100204.88;6243957;23;20027;-94
2023/04/11 11:32:38;;;;;;;44.17;40.60;;;;;;;11.49;100.00;100209.97;6244812;23;20373;-93
2023/04/11 11:35:12;;;;;;;39.63;35.95;;;;;;;11.51;100.00;100202.59;6244395;23;20020;-92
2023/04/11 11:37:40;;;;;;;35.35;32.30;;;;;;;11.66;100.00;100208.31;6243229;23;20024;-92
2023/04/11 11:40:12;;;;;;;42.50;39.20;;;;;;;11.54;100.00;100197.63;6244075;23;20017;-92
2023/04/11 11:42:39;;;;;;;32.45;29.95;;;;;;;11.65;100.00;100193.41;6243277;23;20351;-91
2023/04/11 11:45:16;;;;;;;34.08;31.45;;;;;;;11.58;100.00;100200.63;6243552;23;20020;-91
2023/04/11 11:47:50;;;;;;;31.70;29.30;;;;;;;11.59;100.00;100203.09;6244472;23;20020;-93
2023/04/11 11:50:31;;;;;;;34.08;31.38;;;;;;;11.43;100.00;100199.19;6243738;23;20016;-92
2023/04/11 11:53:12;;;;;;;33.95;30.95;;;;;;;11.57;100.00;100199.03;6243659;23;20493;-93
2023/04/11 11:55:42;;;;;;;66.88;60.50;;;;;;;11.50;100.00;100204.44;6243805;23;20370;-91
2023/04/11 11:58:09;;;;;;;59.05;50.15;;;;;;;11.52;100.00;100204.19;6244176;23;20020;-92
2023/04/11 12:00:37;;;;;;;47.85;42.92;;;;;;;11.63;100.00;100211.41;6243875;23;20027;-92
2023/04/11 12:03:05;;;;;;;47.50;43.08;;;;;;;11.52;100.00;100209.50;6244069;23;20032;-92
2023/04/11 12:05:33;;;;;;;52.95;47.55;;;;;;;11.41;100.00;100208.44;6243340;23;20020;-92
2023/04/11 12:08:05;;;;;;;46.75;43.00;;;;;;;11.35;100.00;100204.00;6243731;23;20341;-92
2023/04/11 12:10:41;;;;;;;46.10;42.38;;;;;;;11.24;100.00;100206.38;6243684;23;20027;-93
2023/04/11 12:13:12;;;;;;;43.90;40.33;;;;;;;11.22;100.00;100199.63;6243454;23;20039;-92
2023/04/11 12:15:41;;;;;;;57.47;52.92;;;;;;;10.99;100.00;100198.47;6243686;23;20428;-92
2023/04/11 12:18:08;;;;;;;66.78;60.92;;;;;;;10.95;100.00;100199.97;6243560;23;20430;-92
2023/04/11 12:20:35;;;;;;;74.18;67.78;;;;;;;11.02;100.00;100199.06;6243786;23;20019;-94
2023/04/11 12:23:02;;;;;;;74.82;68.80;;;;;;;10.95;100.00;100199.97;6243525;23;20099;-93
2023/04/11 12:25:29;;;;;;;74.95;68.82;;;;;;;10.85;100.00;100204.16;6243751;23;20024;-92
2023/04/11 12:27:57;;;;;;;78.45;72.28;;;;;;;10.74;100.00;100210.97;6243803;23;20507;-92
2023/04/11 12:30:24;;;;;;;93.88;85.97;;;;;;;10.67;100.00;100205.75;6243198;23;20027;-93
2023/04/11 12:32:51;;;;;;;106.05;97.93;;;;;;;10.66;100.00;100209.44;6243999;23;20103;-92
2023/04/11 12:35:18;;;;;;;108.50;99.70;;;;;;;10.63;100.00;100212.53;6243811;23;20028;-94
2023/04/11 12:37:45;;;;;;;121.68;111.70;;;;;;;10.50;100.00;100212.66;6243089;23;20099;-93
2023/04/11 12:40:16;;;;;;;120.85;111.18;;;;;;;10.51;100.00;100216.94;6242866;23;20465;-94
2023/04/11 12:42:45;;;;;;;128.95;118.78;;;;;;;10.47;100.00;100215.75;6243593;23;20031;-93
2023/04/11 12:45:14;;;;;;;136.50;125.43;;;;;;;10.41;100.00;100216.59;6243155;23;20024;-91
2023/04/11 12:47:42;;;;;;;151.40;139.02;;;;;;;10.36;100.00;100203.97;6243802;23;20024;-91